createdAt,value
2022-12-12T00:01:30.987Z,26.47
2022-12-12T00:04:01.316Z,26.40
2022-12-12T00:06:29.816Z,27.50
2022-12-12T00:08:58.438Z,26.37
2022-12-12T00:11:28.452Z,28.93
2022-12-12T00:13:57.024Z,26.60
2022-12-12T00:16:26.179Z,26.57
2022-12-12T00:18:54.907Z,22.80
2022-12-12T00:21:26.430Z,26.60
2022-12-12T00:23:55.717Z,31.40
2022-12-12T00:26:26.273Z,26.07
2022-12-12T00:28:55.073Z,27.83
2022-12-12T00:31:23.681Z,30.10
2022-12-12T00:33:52.349Z,27.37
2022-12-12T00:36:23.816Z,25.37
2022-12-12T00:38:54.804Z,27.27
2022-12-12T00:41:23.834Z,28.87
2022-12-12T00:43:52.280Z,28.90
2022-12-12T00:46:23.491Z,33.60
2022-12-12T00:48:54.693Z,28.67
2022-12-12T00:51:25.093Z,30.67
2022-12-12T00:53:55.160Z,30.67
2022-12-12T00:56:25.364Z,27.43
2022-12-12T00:58:54.109Z,27.00
2022-12-12T01:01:25.238Z,29.37
2022-12-12T01:03:55.014Z,30.33
2022-12-12T01:06:23.732Z,26.47
2022-12-12T01:08:52.515Z,28.40
2022-12-12T01:11:23.168Z,30.90
2022-12-12T01:13:53.407Z,29.63
2022-12-12T01:16:22.855Z,28.77
2022-12-12T01:18:51.828Z,32.00
2022-12-12T01:21:21.083Z,31.00
2022-12-12T01:23:49.683Z,31.63
2022-12-12T01:26:20.988Z,34.27
2022-12-12T01:28:51.861Z,31.10
2022-12-12T01:31:20.278Z,30.00
2022-12-12T01:33:48.801Z,30.27
2022-12-12T01:36:19.584Z,29.97
2022-12-12T01:38:49.217Z,31.13
2022-12-12T01:41:19.009Z,30.83
2022-12-12T01:43:47.870Z,33.63
2022-12-12T01:46:43.883Z,37.27
2022-12-12T01:49:21.929Z,30.73
2022-12-12T01:51:54.171Z,32.30
2022-12-12T01:54:27.437Z,34.57
2022-12-12T01:56:57.753Z,36.63
2022-12-12T01:59:27.878Z,39.87
2022-12-12T02:01:58.013Z,38.60
2022-12-12T02:04:29.330Z,33.33
2022-12-12T02:06:58.968Z,34.00
2022-12-12T02:09:28.085Z,35.80
2022-12-12T02:11:58.694Z,32.87
2022-12-12T02:14:30.802Z,32.57
2022-12-12T02:17:37.001Z,37.33
2022-12-12T02:20:40.986Z,33.97
2022-12-12T02:23:46.664Z,36.63
2022-12-12T02:26:50.269Z,31.27
2022-12-12T02:30:09.357Z,32.37
2022-12-12T02:33:11.548Z,36.23
2022-12-12T02:35:51.484Z,35.70
2022-12-12T02:38:29.056Z,34.13
2022-12-12T02:41:09.623Z,37.47
2022-12-12T02:43:44.936Z,37.30
2022-12-12T02:46:21.808Z,32.87
2022-12-12T02:48:57.759Z,35.00
2022-12-12T02:51:27.753Z,34.70
2022-12-12T02:53:56.137Z,32.50
2022-12-12T02:56:44.551Z,32.83
2022-12-12T02:59:17.636Z,31.10
2022-12-12T03:02:07.123Z,31.87
2022-12-12T03:05:07.911Z,31.87
2022-12-12T03:07:52.364Z,33.20
2022-12-12T03:10:33.059Z,31.83
2022-12-12T03:13:09.523Z,30.27
2022-12-12T03:15:45.506Z,29.97
2022-12-12T03:18:25.884Z,29.57
2022-12-12T03:21:03.273Z,35.53
2022-12-12T03:23:38.202Z,31.40
2022-12-12T03:26:10.997Z,29.43
2022-12-12T03:28:42.386Z,33.43
2022-12-12T03:31:13.309Z,35.33
2022-12-12T03:33:45.842Z,36.00
2022-12-12T03:36:19.919Z,34.00
2022-12-12T03:38:57.165Z,34.63
2022-12-12T03:41:31.562Z,31.77
2022-12-12T03:44:04.075Z,36.90
2022-12-12T03:46:36.890Z,35.17
2022-12-12T03:49:14.729Z,37.13
2022-12-12T03:51:51.260Z,34.47
2022-12-12T03:54:25.998Z,35.53
2022-12-12T03:57:01.904Z,34.17
2022-12-12T03:59:34.156Z,34.27
2022-12-12T04:02:13.001Z,35.13
2022-12-12T04:04:49.473Z,33.03
2022-12-12T04:07:23.744Z,36.30
2022-12-12T04:10:09.971Z,33.80
2022-12-12T04:13:00.580Z,34.80
2022-12-12T04:15:47.775Z,35.43
2022-12-12T04:18:22.218Z,36.13
2022-12-12T04:21:21.559Z,35.03
2022-12-12T04:24:01.070Z,35.87
2022-12-12T04:26:42.040Z,33.43
2022-12-12T04:29:35.682Z,31.37
2022-12-12T04:32:13.701Z,32.87
2022-12-12T04:34:45.227Z,38.83
2022-12-12T04:37:15.982Z,33.53
2022-12-12T04:39:50.654Z,37.00
2022-12-12T04:42:23.700Z,37.80
2022-12-12T04:44:55.892Z,34.40
2022-12-12T04:47:25.163Z,39.47
2022-12-12T04:49:55.610Z,36.33
2022-12-12T04:52:25.002Z,35.73
2022-12-12T04:55:01.180Z,33.20
2022-12-12T04:57:35.187Z,41.47
2022-12-12T05:00:03.638Z,36.80
2022-12-12T05:02:39.108Z,35.67
2022-12-12T05:05:12.584Z,35.37
2022-12-12T05:07:44.046Z,36.87
2022-12-12T05:10:16.550Z,38.13
2022-12-12T05:12:46.799Z,39.33
2022-12-12T05:15:16.429Z,37.53
2022-12-12T05:17:47.592Z,39.73
2022-12-12T05:20:16.885Z,36.93
2022-12-12T05:22:45.305Z,42.23
2022-12-12T05:25:15.283Z,39.17
2022-12-12T05:27:43.859Z,39.83
2022-12-12T05:30:13.749Z,45.00
2022-12-12T05:32:42.227Z,38.33
2022-12-12T05:35:12.069Z,39.33
2022-12-12T05:37:40.937Z,42.40
2022-12-12T05:40:10.709Z,37.67
2022-12-12T05:42:40.962Z,42.70
2022-12-12T05:45:10.858Z,39.33
2022-12-12T05:47:39.582Z,38.73
2022-12-12T05:50:08.849Z,39.70
2022-12-12T05:52:37.293Z,39.40
2022-12-12T05:55:06.763Z,40.83
2022-12-12T05:57:36.127Z,38.20
2022-12-12T06:00:07.422Z,38.87
2022-12-12T06:02:35.819Z,43.73
2022-12-12T06:05:04.807Z,43.83
2022-12-12T06:07:33.204Z,41.07
2022-12-12T06:10:01.597Z,43.40
2022-12-12T06:12:30.058Z,41.20
2022-12-12T06:14:58.316Z,38.63
2022-12-12T06:17:32.975Z,44.43
2022-12-12T06:20:01.917Z,50.30
2022-12-12T06:22:30.356Z,41.23
2022-12-12T06:24:58.696Z,52.37
2022-12-12T06:27:27.491Z,44.30
2022-12-12T06:29:55.906Z,43.23
2022-12-12T06:32:24.295Z,47.13
2022-12-12T06:34:54.001Z,41.20
2022-12-12T06:37:22.445Z,47.60
2022-12-12T06:39:50.843Z,49.70
2022-12-12T06:42:19.263Z,51.37
2022-12-12T06:44:48.336Z,51.63
2022-12-12T06:47:16.875Z,50.87
2022-12-12T06:49:45.217Z,50.97
2022-12-12T06:52:15.230Z,45.90
2022-12-12T06:54:43.644Z,51.13
2022-12-12T06:57:12.183Z,48.90
2022-12-12T06:59:40.783Z,47.67
2022-12-12T07:02:12.230Z,48.67
2022-12-12T07:04:40.661Z,52.37
2022-12-12T07:07:09.018Z,49.47
2022-12-12T07:09:38.850Z,47.60
2022-12-12T07:12:07.282Z,48.47
2022-12-12T07:14:35.709Z,50.67
2022-12-12T07:17:04.142Z,49.10
2022-12-12T07:19:32.473Z,46.47
2022-12-12T07:22:07.531Z,51.53
2022-12-12T07:24:39.642Z,49.97
2022-12-12T07:27:08.144Z,49.97
2022-12-12T07:29:36.691Z,54.17
2022-12-12T07:32:05.248Z,53.03
2022-12-12T07:34:34.040Z,52.70
2022-12-12T07:37:03.473Z,60.27
2022-12-12T07:39:32.436Z,55.27
2022-12-12T07:42:02.216Z,60.80
2022-12-12T07:44:30.602Z,48.80
2022-12-12T07:46:59.279Z,52.60
2022-12-12T07:49:29.225Z,52.23
2022-12-12T07:51:57.750Z,58.13
2022-12-12T07:54:26.178Z,59.80
2022-12-12T07:56:54.607Z,48.30
2022-12-12T07:59:24.496Z,53.40
2022-12-12T08:01:52.904Z,51.57
2022-12-12T08:04:21.431Z,50.60
2022-12-12T08:06:54.034Z,62.37
2022-12-12T08:09:26.547Z,59.33
2022-12-12T08:11:57.048Z,53.10
2022-12-12T08:14:27.637Z,53.10
2022-12-12T08:16:56.292Z,53.67
2022-12-12T08:19:24.746Z,56.60
2022-12-12T08:21:53.141Z,56.80
2022-12-12T08:24:21.933Z,47.77
2022-12-12T08:26:51.403Z,48.23
2022-12-12T08:29:19.793Z,46.27
2022-12-12T08:31:50.132Z,47.97
2022-12-12T08:34:18.603Z,46.83
2022-12-12T08:36:47.525Z,52.00
2022-12-12T08:39:17.254Z,50.97
2022-12-12T08:41:48.075Z,49.03
2022-12-12T08:44:18.074Z,53.13
2022-12-12T08:46:46.451Z,49.57
2022-12-12T08:49:16.381Z,49.27
2022-12-12T08:51:44.825Z,54.73
2022-12-12T08:54:14.223Z,50.23
2022-12-12T08:56:42.920Z,51.30
2022-12-12T08:59:11.276Z,53.00
2022-12-12T09:01:40.163Z,53.03
2022-12-12T09:04:08.648Z,52.90
2022-12-12T09:06:38.416Z,50.90
2022-12-12T09:09:06.668Z,51.67
2022-12-12T09:11:35.018Z,56.33
2022-12-12T09:14:03.340Z,52.07
2022-12-12T09:16:31.712Z,54.90
2022-12-12T09:19:00.131Z,47.80
2022-12-12T09:21:28.571Z,53.00
2022-12-12T09:23:58.631Z,57.43
2022-12-12T09:26:26.944Z,61.90
2022-12-12T09:28:55.416Z,63.57
2022-12-12T09:31:23.764Z,61.53
2022-12-12T09:33:52.400Z,58.07
2022-12-12T09:36:21.105Z,51.13
2022-12-12T09:38:49.567Z,47.50
2022-12-12T09:41:21.663Z,50.83
2022-12-12T09:43:56.010Z,40.70
2022-12-12T09:46:32.734Z,41.90
2022-12-12T09:49:08.984Z,47.60
2022-12-12T09:51:38.149Z,44.57
2022-12-12T09:54:07.357Z,41.53
2022-12-12T09:56:49.238Z,39.50
2022-12-12T09:59:24.291Z,39.67
2022-12-12T10:02:01.805Z,32.07
2022-12-12T10:04:39.046Z,36.90
2022-12-12T10:07:16.873Z,36.13
2022-12-12T10:10:00.817Z,35.50
2022-12-12T10:12:31.291Z,34.43
2022-12-12T10:15:02.711Z,33.97
2022-12-12T10:17:35.915Z,31.63
2022-12-12T10:20:09.371Z,34.67
2022-12-12T10:22:42.249Z,27.43
2022-12-12T10:25:21.047Z,28.93
2022-12-12T10:27:53.316Z,26.47
2022-12-12T10:30:22.221Z,23.53
2022-12-12T10:33:11.660Z,24.73
2022-12-12T10:35:46.708Z,25.03
2022-12-12T10:38:32.299Z,26.57
2022-12-12T10:41:08.284Z,25.37
2022-12-12T10:43:47.305Z,24.47
2022-12-12T10:46:29.317Z,23.63
2022-12-12T10:48:58.218Z,21.03
2022-12-12T10:51:29.027Z,20.00
2022-12-12T10:53:57.481Z,20.40
2022-12-12T10:56:31.480Z,20.10
2022-12-12T10:59:02.597Z,19.40
2022-12-12T11:02:07.793Z,19.03
2022-12-12T11:04:23.267Z,19.47
2022-12-12T11:06:54.954Z,19.37
2022-12-12T11:09:25.222Z,21.77
2022-12-12T11:12:00.586Z,19.43
2022-12-12T11:14:35.789Z,25.77
2022-12-12T11:17:07.434Z,21.17
2022-12-12T11:19:39.652Z,18.10
2022-12-12T11:22:08.195Z,19.03
2022-12-12T11:24:40.186Z,20.30
2022-12-12T11:27:09.127Z,19.33
2022-12-12T11:29:45.434Z,21.07
2022-12-12T11:32:15.763Z,17.97
2022-12-12T11:34:48.876Z,16.33
2022-12-12T11:37:19.659Z,14.77
2022-12-12T11:39:51.911Z,14.77
2022-12-12T11:42:23.537Z,19.37
2022-12-12T11:45:02.687Z,17.37
2022-12-12T11:47:38.637Z,13.83
2022-12-12T11:50:19.976Z,13.83
2022-12-12T11:52:49.770Z,16.10
2022-12-12T11:55:21.986Z,15.57
2022-12-12T11:58:03.981Z,18.97
2022-12-12T12:00:43.533Z,16.63
2022-12-12T12:03:32.529Z,13.00
2022-12-12T12:06:15.799Z,14.07
2022-12-12T12:08:59.398Z,14.30
2022-12-12T12:11:35.767Z,12.47
2022-12-12T12:14:28.585Z,14.13
2022-12-12T12:17:06.571Z,16.03
2022-12-12T12:19:52.194Z,18.13
2022-12-12T12:22:33.559Z,16.20
2022-12-12T12:25:25.339Z,16.30
2022-12-12T12:28:08.713Z,13.17
2022-12-12T12:30:46.630Z,15.17
2022-12-12T12:33:35.859Z,15.90
2022-12-12T12:36:19.287Z,14.00
2022-12-12T12:38:57.708Z,14.20
2022-12-12T12:41:59.499Z,13.00
2022-12-12T12:44:45.540Z,17.13
2022-12-12T12:47:26.373Z,9.87
2022-12-12T12:50:01.662Z,14.30
2022-12-12T12:52:35.674Z,15.80
2022-12-12T12:55:05.357Z,13.30
2022-12-12T12:57:39.281Z,15.87
2022-12-12T13:00:16.082Z,14.90
2022-12-12T13:02:52.023Z,12.50
2022-12-12T13:05:27.662Z,12.77
2022-12-12T13:08:02.374Z,14.37
2022-12-12T13:10:32.413Z,12.60
2022-12-12T13:13:07.385Z,13.33
2022-12-12T13:15:39.844Z,15.03
2022-12-12T13:18:13.602Z,14.73
2022-12-12T13:20:46.970Z,17.43
2022-12-12T13:23:48.092Z,16.03
2022-12-12T13:26:25.054Z,22.53
2022-12-12T13:28:59.631Z,13.37
2022-12-12T13:31:54.459Z,12.57
2022-12-12T13:34:25.401Z,14.27
2022-12-12T13:36:57.231Z,11.17
2022-12-12T13:39:30.931Z,15.00
2022-12-12T13:42:02.083Z,14.20
2022-12-12T13:44:36.893Z,13.87
2022-12-12T13:47:06.011Z,19.77
2022-12-12T13:49:45.407Z,32.17
2022-12-12T13:52:27.551Z,14.77
2022-12-12T13:55:21.219Z,15.50
2022-12-12T13:58:10.321Z,17.30
2022-12-12T14:00:39.424Z,17.17
2022-12-12T14:03:24.726Z,18.33
2022-12-12T14:05:54.616Z,17.60
2022-12-12T14:08:32.592Z,18.33
2022-12-12T14:11:03.114Z,18.83
2022-12-12T14:13:44.748Z,16.20
2022-12-12T14:16:27.871Z,18.53
2022-12-12T14:19:19.431Z,17.03
2022-12-12T14:21:49.092Z,15.70
2022-12-12T14:25:02.999Z,19.97
2022-12-12T14:28:14.021Z,15.80
2022-12-12T14:30:57.249Z,19.80
2022-12-12T14:33:58.279Z,15.93
2022-12-12T14:36:51.117Z,16.77
2022-12-12T14:39:31.856Z,18.80
2022-12-12T14:42:03.948Z,23.30
2022-12-12T14:44:38.057Z,17.60
2022-12-12T14:47:10.714Z,20.53
2022-12-12T14:49:39.190Z,16.40
2022-12-12T14:52:07.623Z,19.43
2022-12-12T14:54:37.746Z,18.90
2022-12-12T14:57:08.810Z,18.77
2022-12-12T14:59:39.690Z,18.87
2022-12-12T15:02:21.003Z,16.87
2022-12-12T15:04:53.075Z,18.37
2022-12-12T15:07:26.137Z,17.07
2022-12-12T15:09:54.631Z,22.47
2022-12-12T15:12:26.612Z,19.67
2022-12-12T15:14:57.136Z,19.17
2022-12-12T15:17:30.062Z,18.10
2022-12-12T15:20:01.226Z,17.90
2022-12-12T15:22:31.767Z,17.50
2022-12-12T15:25:02.179Z,19.27
2022-12-12T15:27:32.928Z,18.30
2022-12-12T15:30:03.435Z,18.53
2022-12-12T15:32:33.299Z,23.17
2022-12-12T15:35:04.584Z,23.33
2022-12-12T15:37:34.995Z,17.20
2022-12-12T15:40:20.112Z,19.87
2022-12-12T15:42:53.438Z,20.30
2022-12-12T15:45:25.812Z,18.53
2022-12-12T15:47:56.685Z,23.00
2022-12-12T15:50:29.575Z,23.17
2022-12-12T15:53:06.926Z,23.27
2022-12-12T15:55:36.509Z,22.17
2022-12-12T15:58:05.121Z,24.37
2022-12-12T16:00:37.342Z,23.67
2022-12-12T16:03:22.622Z,30.17
2022-12-12T16:06:16.704Z,26.27
2022-12-12T16:08:49.714Z,29.90
2022-12-12T16:11:42.902Z,27.40
2022-12-12T16:14:39.115Z,28.03
2022-12-12T16:17:11.631Z,33.13
2022-12-12T16:19:43.812Z,31.63
2022-12-12T16:22:22.018Z,29.23
2022-12-12T16:24:53.104Z,33.40
2022-12-12T16:27:21.930Z,33.30
2022-12-12T16:29:50.273Z,36.17
2022-12-12T16:32:21.340Z,34.13
2022-12-12T16:34:51.039Z,32.97
2022-12-12T16:37:19.969Z,37.93
2022-12-12T16:39:48.498Z,39.20
2022-12-12T16:42:19.906Z,37.97
2022-12-12T16:44:48.513Z,38.43
2022-12-12T16:47:18.234Z,36.07
2022-12-12T16:49:46.971Z,33.80
2022-12-12T16:52:18.779Z,43.73
2022-12-12T16:54:53.158Z,39.63
2022-12-12T16:57:23.118Z,36.63
2022-12-12T16:59:51.550Z,38.87
2022-12-12T17:02:21.722Z,38.47
2022-12-12T17:04:50.848Z,37.93
2022-12-12T17:07:21.026Z,45.20
2022-12-12T17:09:49.369Z,47.50
2022-12-12T17:12:17.834Z,44.63
2022-12-12T17:14:46.413Z,45.93
2022-12-12T17:17:14.877Z,47.43
2022-12-12T17:19:43.310Z,52.77
2022-12-12T17:22:11.712Z,51.67
2022-12-12T17:24:41.720Z,54.20
2022-12-12T17:27:10.042Z,52.83
2022-12-12T17:29:38.479Z,46.63
2022-12-12T17:32:07.148Z,50.27
2022-12-12T17:34:35.593Z,45.43
2022-12-12T17:37:04.056Z,53.93
2022-12-12T17:39:32.573Z,52.67
2022-12-12T17:42:02.976Z,48.10
2022-12-12T17:44:31.608Z,46.50
2022-12-12T17:47:01.256Z,47.10
2022-12-12T17:49:29.681Z,53.80
2022-12-12T17:51:58.137Z,51.10
2022-12-12T17:54:26.465Z,53.67
2022-12-12T17:56:55.283Z,47.50
2022-12-12T17:59:25.106Z,46.77
2022-12-12T18:01:54.176Z,46.00
2022-12-12T18:04:27.954Z,46.80
2022-12-12T18:06:57.083Z,49.20
2022-12-12T18:09:26.177Z,48.30
2022-12-12T18:11:54.524Z,48.43
2022-12-12T18:14:24.387Z,44.47
2022-12-12T18:16:53.376Z,43.23
2022-12-12T18:19:23.821Z,43.80
2022-12-12T18:22:01.438Z,44.17
2022-12-12T18:24:32.490Z,52.30
2022-12-12T18:27:03.755Z,50.87
2022-12-12T18:29:33.605Z,43.03
2022-12-12T18:32:02.113Z,43.20
2022-12-12T18:34:31.075Z,40.83
2022-12-12T18:36:59.455Z,41.70
2022-12-12T18:39:27.787Z,44.37
2022-12-12T18:41:56.159Z,38.50
2022-12-12T18:44:24.589Z,36.87
2022-12-12T18:46:54.305Z,38.07
2022-12-12T18:49:22.840Z,42.53
2022-12-12T18:51:51.271Z,42.67
2022-12-12T18:54:19.708Z,42.43
2022-12-12T18:56:48.748Z,44.40
2022-12-12T18:59:17.576Z,43.67
2022-12-12T19:01:48.152Z,49.07
2022-12-12T19:04:23.265Z,45.50
2022-12-12T19:06:52.421Z,42.57
2022-12-12T19:09:21.652Z,48.53
2022-12-12T19:11:50.318Z,52.43
2022-12-12T19:14:18.913Z,50.50
2022-12-12T19:16:47.340Z,47.93
2022-12-12T19:19:17.623Z,49.00
2022-12-12T19:21:46.427Z,48.60
2022-12-12T19:24:15.082Z,46.17
2022-12-12T19:26:45.062Z,48.67
2022-12-12T19:29:15.636Z,48.83
2022-12-12T19:31:44.895Z,46.60
2022-12-12T19:34:14.981Z,49.80
2022-12-12T19:36:46.149Z,57.67
2022-12-12T19:39:14.538Z,54.17
2022-12-12T19:41:43.364Z,56.13
2022-12-12T19:44:13.115Z,56.80
2022-12-12T19:46:43.638Z,55.73
2022-12-12T19:49:13.786Z,58.07
2022-12-12T19:51:44.827Z,57.90
2022-12-12T19:54:17.565Z,54.53
2022-12-12T19:56:46.943Z,55.20
2022-12-12T19:59:17.177Z,54.83
2022-12-12T20:01:46.516Z,55.30
2022-12-12T20:04:19.612Z,49.00
2022-12-12T20:06:49.407Z,48.80
2022-12-12T20:09:22.166Z,50.43
2022-12-12T20:11:51.220Z,46.10
2022-12-12T20:14:22.136Z,50.87
2022-12-12T20:16:51.064Z,52.93
2022-12-12T20:19:21.093Z,52.53
2022-12-12T20:22:05.891Z,49.37
2022-12-12T20:24:37.407Z,52.10
2022-12-12T20:27:06.727Z,51.47
2022-12-12T20:29:35.983Z,49.73
2022-12-12T20:32:04.754Z,45.70
2022-12-12T20:34:33.076Z,49.07
2022-12-12T20:37:01.361Z,45.30
2022-12-12T20:39:29.770Z,51.17
2022-12-12T20:41:59.682Z,54.17
2022-12-12T20:44:29.295Z,47.87
2022-12-12T20:46:58.840Z,51.03
2022-12-12T20:49:29.043Z,52.87
2022-12-12T20:51:58.593Z,56.00
2022-12-12T20:54:28.320Z,58.97
2022-12-12T20:57:00.546Z,58.87
2022-12-12T20:59:28.832Z,64.93
2022-12-12T21:01:57.238Z,61.50
2022-12-12T21:04:26.014Z,68.23
2022-12-12T21:06:54.288Z,69.97
2022-12-12T21:09:27.020Z,66.47
2022-12-12T21:11:58.015Z,68.47
2022-12-12T21:14:30.995Z,64.73
2022-12-12T21:17:00.734Z,62.00
2022-12-12T21:19:30.064Z,54.97
2022-12-12T21:21:58.450Z,68.70
2022-12-12T21:24:26.958Z,63.27
2022-12-12T21:26:58.083Z,69.03
2022-12-12T21:29:27.815Z,61.37
2022-12-12T21:31:56.606Z,70.50
2022-12-12T21:34:24.992Z,67.87
2022-12-12T21:36:54.409Z,70.93
2022-12-12T21:39:26.867Z,75.27
2022-12-12T21:41:55.669Z,73.90
2022-12-12T21:44:24.255Z,67.17
2022-12-12T21:46:54.192Z,71.43
2022-12-12T21:49:31.074Z,71.83
2022-12-12T21:52:02.389Z,67.23
2022-12-12T21:54:31.865Z,70.17
2022-12-12T21:57:04.013Z,75.57
2022-12-12T21:59:32.608Z,77.43
2022-12-12T22:02:02.350Z,88.40
2022-12-12T22:04:31.999Z,81.90
2022-12-12T22:07:00.387Z,68.87
2022-12-12T22:09:28.767Z,72.17
2022-12-12T22:12:04.044Z,63.17
2022-12-12T22:14:34.154Z,72.30
2022-12-12T22:17:04.213Z,61.33
2022-12-12T22:19:32.548Z,66.77
2022-12-12T22:22:00.974Z,68.50
2022-12-12T22:24:29.696Z,66.63
2022-12-12T22:26:58.216Z,69.50
2022-12-12T22:29:26.496Z,67.63
2022-12-12T22:31:54.834Z,72.53
2022-12-12T22:34:26.158Z,72.50
2022-12-12T22:36:55.912Z,72.10
2022-12-12T22:39:25.955Z,68.50
2022-12-12T22:41:55.625Z,78.10
2022-12-12T22:44:25.392Z,79.47
2022-12-12T22:46:55.350Z,74.63
2022-12-12T22:49:26.895Z,62.40
2022-12-12T22:51:56.506Z,75.27
2022-12-12T22:54:25.416Z,81.07
2022-12-12T22:56:55.439Z,79.13
2022-12-12T22:59:23.805Z,74.33
2022-12-12T23:01:52.084Z,73.97
2022-12-12T23:04:20.478Z,76.03
2022-12-12T23:06:50.167Z,75.43
2022-12-12T23:09:21.076Z,86.23
2022-12-12T23:11:49.366Z,78.57
2022-12-12T23:14:21.601Z,78.83
2022-12-12T23:16:51.206Z,84.17
2022-12-12T23:19:21.764Z,80.00
2022-12-12T23:21:51.617Z,76.03
2022-12-12T23:24:19.886Z,76.77
2022-12-12T23:26:51.097Z,70.87
2022-12-12T23:29:20.323Z,77.20
2022-12-12T23:31:49.645Z,83.03
2022-12-12T23:34:22.819Z,72.63
2022-12-12T23:37:01.287Z,74.53
2022-12-12T23:39:29.760Z,74.67
2022-12-12T23:41:59.412Z,82.83
2022-12-12T23:44:27.633Z,75.20
2022-12-12T23:46:58.217Z,84.93
2022-12-12T23:49:27.553Z,88.60
2022-12-12T23:51:58.901Z,94.60
2022-12-12T23:54:31.984Z,100.47
2022-12-12T23:57:00.377Z,91.53
2022-12-12T23:59:29.536Z,101.30
